x

La Perouse Bank (46206) Wave Buoy

2:00am - Sun 24th Jun 2018 All times are PDT. -7 hours from GMT.

  • Sig Wave height 3.0ft
  • Peak Period 8s
  • Wind
    9mph, 9mph gusts
  • Sea Temp 56°f
  • Air Temp 56°f
  • Sea Pressure 1020.6mb
  • La Perouse Bank
  • La Perouse Bank

More Historic Weather Station data

Upgrade to MSW Pro to gain access to the past 30 days of data for over 8000 Wavebouys and Weather Stations around the globe.

Join

Comparision Forecast

View Surf forecast
   
Sun 06/24 2:00am 3ft 8s 9 9 mph 1020.6mb 56f 56f
1:00am 3ft 8s 7 9 mph 1020.7mb 56f 56f
Sat 06/23 8:00pm 3.5ft 8s 13 16 mph 1022.2mb 57f 57f
6:00pm 4ft 7s 13 16 mph 1022.9mb 56f 56f
5:00pm 4ft 5s 9 11 mph 1023.2mb 56f 55f
3:00pm 4ft 8s 9 11 mph 1023.7mb 56f 56f
2:00pm 4ft 8s 9 11 mph 1023.7mb 56f 56f
1:00pm 4ft 5s 9 11 mph 1023.5mb 56f 56f
5:00am 4.5ft 5s 13 18 mph 1021.1mb 56f 56f
4:00am 3.5ft 5s 13 16 mph 1021mb 57f 57f
1:00am 3ft 4s 13 16 mph 1021.5mb 57f 57f
12:00am 3ft 11s 16 18 mph 1021.4mb 57f 57f
Fri 06/22 11:00pm 3ft 12s 13 16 mph 1021.6mb 57f 57f
9:00pm 3ft 14s 13 16 mph 1021.5mb 58f 57f
8:00pm 2.5ft 12s 13 16 mph 1021.7mb 57f 57f
7:00pm 2.5ft 12s 11 13 mph 1021.7mb 57f 57f
6:00pm 2.5ft 12s 11 13 mph 1021.8mb 58f 57f
4:00pm 2.5ft 13s 9 11 mph 1022.3mb 58f 57f
3:00pm 2.5ft 8s 7 9 mph 1022.5mb 57f 57f
2:00pm 2.5ft 13s 7 9 mph 1022.6mb 56f 56f
12:00pm 3ft 8s 4 7 mph 1022.5mb 56f 56f
11:00am 3ft 9s 7 9 mph 1022.3mb 56f 56f
10:00am 3ft 8s 7 9 mph 1022.3mb 56f 56f
8:00am 3ft 9s 9 11 mph 1022.1mb 55f 55f
7:00am 3ft 13s 7 9 mph 1021.9mb 55f 55f
4:00am 3.5ft 13s 11 13 mph 1021.5mb 55f 54f
3:00am 3.5ft 14s 7 9 mph 1021.5mb 55f 55f
1:00am 3ft 9s 11 16 mph 1021.8mb 55f 56f
12:00am 2.5ft 13s 11 13 mph 1021.8mb 55f 56f
Thu 06/21 11:00pm 3ft 9s 9 11 mph 1021.5mb 55f 56f
6:00pm 3.5ft 9s 9 13 mph 1021.5mb 56f 56f
5:00pm 3.5ft 14s 7 9 mph 1021.6mb 57f 56f
4:00pm 3ft 8s 4 7 mph 1021.7mb 57f 56f
1:00pm 3.5ft 10s 4 4 mph 1022mb 56f 55f
10:00am 4ft 10s 4 4 mph 1020.3mb 56f 55f
9:00am 4ft 10s  -  2 mph 1019.8mb 56f 56f
8:00am 4ft 10s 4 7 mph 1019.6mb 57f 55f
4:00am 4.5ft 10s 4 9 mph 1018.3mb 57f 54f
3:00am 4.5ft 9s 4 9 mph 1017.8mb 57f 54f
2:00am 4.5ft 10s 7 9 mph 1017.4mb 56f 54f
1:00am 5ft 10s 11 16 mph 1017mb 56f 54f
12:00am 5ft 10s 11 13 mph 1016.7mb 56f 54f
Wed 06/20 11:00pm 5ft 10s 13 18 mph 1016mb 56f 54f
10:00pm 5ft 11s 13 18 mph 1015.5mb 56f 54f
6:00pm 4.5ft 11s 16 20 mph 1014.6mb 57f 55f
5:00pm 4.5ft 11s 13 18 mph 1015.1mb 57f 56f
4:00pm 5ft 12s 13 16 mph 1015.3mb 58f 55f
3:00pm 4.5ft 11s 11 16 mph 1015.7mb 58f 55f
1:00pm 5ft 11s 9 11 mph 1016mb 58f 55f
12:00pm 5ft 12s 7 9 mph 1016.1mb 58f 55f
11:00am 5.5ft 11s 9 11 mph 1016.2mb 58f 55f